sensor_id;sensor_type;location;lat;lon;timestamp;pressure;altitude;pressure_sealevel;temperature;humidity
24280;BME280;12395;42.808;23.408;2022-08-19T00:01:16;94662.41;;;18.82;77.24
24280;BME280;12395;42.808;23.408;2022-08-19T00:03:41;94660.75;;;18.76;78.16
24280;BME280;12395;42.808;23.408;2022-08-19T00:06:06;94663.41;;;18.66;78.48
24280;BME280;12395;42.808;23.408;2022-08-19T00:08:32;94668.75;;;18.61;78.01
24280;BME280;12395;42.808;23.408;2022-08-19T00:10:57;94649.38;;;18.48;77.74
24280;BME280;12395;42.808;23.408;2022-08-19T00:13:23;94670.38;;;18.62;78.29
24280;BME280;12395;42.808;23.408;2022-08-19T00:15:48;94667.00;;;18.34;79.20
24280;BME280;12395;42.808;23.408;2022-08-19T00:18:13;94666.44;;;18.27;79.21
24280;BME280;12395;42.808;23.408;2022-08-19T00:20:39;94685.56;;;18.41;79.67
24280;BME280;12395;42.808;23.408;2022-08-19T00:23:06;94672.06;;;18.31;78.45
24280;BME280;12395;42.808;23.408;2022-08-19T00:25:31;94665.09;;;18.30;78.47
24280;BME280;12395;42.808;23.408;2022-08-19T00:27:57;94667.56;;;18.36;78.48
24280;BME280;12395;42.808;23.408;2022-08-19T00:30:24;94668.59;;;18.35;78.77
24280;BME280;12395;42.808;23.408;2022-08-19T00:32:49;94655.56;;;18.02;81.07
24280;BME280;12395;42.808;23.408;2022-08-19T00:35:15;94642.84;;;17.83;81.23
24280;BME280;12395;42.808;23.408;2022-08-19T00:37:41;94667.59;;;18.00;80.58
24280;BME280;12395;42.808;23.408;2022-08-19T00:40:09;94664.69;;;18.06;80.34
24280;BME280;12395;42.808;23.408;2022-08-19T00:42:35;94651.53;;;18.00;80.08
24280;BME280;12395;42.808;23.408;2022-08-19T00:45:00;94671.66;;;18.07;80.17
24280;BME280;12395;42.808;23.408;2022-08-19T00:47:26;94666.53;;;18.01;81.41
24280;BME280;12395;42.808;23.408;2022-08-19T00:49:54;94658.16;;;17.92;81.10
24280;BME280;12395;42.808;23.408;2022-08-19T00:52:28;94661.53;;;17.78;81.70
24280;BME280;12395;42.808;23.408;2022-08-19T00:54:55;94662.84;;;17.70;83.05
24280;BME280;12395;42.808;23.408;2022-08-19T00:57:26;94666.34;;;17.76;82.57
24280;BME280;12395;42.808;23.408;2022-08-19T00:59:54;94662.19;;;17.90;81.65
24280;BME280;12395;42.808;23.408;2022-08-19T01:02:20;94657.09;;;17.93;80.96
24280;BME280;12395;42.808;23.408;2022-08-19T01:04:45;94651.78;;;18.03;79.84
24280;BME280;12395;42.808;23.408;2022-08-19T01:07:11;94650.47;;;18.06;80.13
24280;BME280;12395;42.808;23.408;2022-08-19T01:09:37;94660.69;;;18.09;80.70
24280;BME280;12395;42.808;23.408;2022-08-19T01:12:02;94661.72;;;18.03;81.07
24280;BME280;12395;42.808;23.408;2022-08-19T01:14:29;94646.84;;;17.80;81.60
24280;BME280;12395;42.808;23.408;2022-08-19T01:16:55;94638.25;;;17.78;81.37
24280;BME280;12395;42.808;23.408;2022-08-19T01:19:37;94654.38;;;17.83;81.61
24280;BME280;12395;42.808;23.408;2022-08-19T01:22:25;94642.28;;;17.81;81.70
24280;BME280;12395;42.808;23.408;2022-08-19T01:24:52;94649.00;;;17.83;81.91
24280;BME280;12395;42.808;23.408;2022-08-19T01:27:18;94654.91;;;17.85;81.85
24280;BME280;12395;42.808;23.408;2022-08-19T01:29:44;94648.19;;;17.83;82.12
24280;BME280;12395;42.808;23.408;2022-08-19T01:32:13;94659.19;;;17.81;82.30
24280;BME280;12395;42.808;23.408;2022-08-19T01:34:40;94662.09;;;17.80;84.34
24280;BME280;12395;42.808;23.408;2022-08-19T01:37:09;94658.31;;;17.70;83.93
24280;BME280;12395;42.808;23.408;2022-08-19T01:39:37;94650.97;;;17.61;85.43
24280;BME280;12395;42.808;23.408;2022-08-19T01:42:03;94653.94;;;17.59;85.34
24280;BME280;12395;42.808;23.408;2022-08-19T01:44:29;94643.94;;;17.50;82.85
24280;BME280;12395;42.808;23.408;2022-08-19T01:46:55;94664.59;;;17.54;83.56
24280;BME280;12395;42.808;23.408;2022-08-19T01:49:23;94668.09;;;17.55;83.20
24280;BME280;12395;42.808;23.408;2022-08-19T01:51:50;94667.00;;;17.56;82.83
24280;BME280;12395;42.808;23.408;2022-08-19T01:54:17;94672.13;;;17.57;82.73
24280;BME280;12395;42.808;23.408;2022-08-19T01:56:43;94666.41;;;17.49;83.23
24280;BME280;12395;42.808;23.408;2022-08-19T01:59:14;94665.59;;;17.48;83.50
24280;BME280;12395;42.808;23.408;2022-08-19T02:01:41;94643.94;;;17.23;83.69
24280;BME280;12395;42.808;23.408;2022-08-19T02:04:07;94661.28;;;17.47;84.01
24280;BME280;12395;42.808;23.408;2022-08-19T02:06:34;94667.44;;;17.48;84.14
24280;BME280;12395;42.808;23.408;2022-08-19T02:09:00;94656.81;;;17.26;85.01
24280;BME280;12395;42.808;23.408;2022-08-19T02:11:31;94665.94;;;17.25;85.51
24280;BME280;12395;42.808;23.408;2022-08-19T02:14:00;94667.84;;;17.30;84.70
24280;BME280;12395;42.808;23.408;2022-08-19T02:16:26;94666.16;;;17.24;84.28
24280;BME280;12395;42.808;23.408;2022-08-19T02:18:52;94668.75;;;17.14;84.46
24280;BME280;12395;42.808;23.408;2022-08-19T02:21:19;94677.66;;;17.19;84.66
24280;BME280;12395;42.808;23.408;2022-08-19T02:23:45;94670.38;;;17.15;85.92
24280;BME280;12395;42.808;23.408;2022-08-19T02:26:11;94678.84;;;17.07;86.99
24280;BME280;12395;42.808;23.408;2022-08-19T02:28:38;94678.38;;;16.88;86.62
24280;BME280;12395;42.808;23.408;2022-08-19T02:31:08;94690.75;;;16.94;85.95
24280;BME280;12395;42.808;23.408;2022-08-19T02:33:34;94663.22;;;16.93;86.43
24280;BME280;12395;42.808;23.408;2022-08-19T02:35:59;94671.53;;;16.97;86.90
24280;BME280;12395;42.808;23.408;2022-08-19T02:38:27;94664.66;;;16.79;87.80
24280;BME280;12395;42.808;23.408;2022-08-19T02:40:56;94670.63;;;16.86;88.38
24280;BME280;12395;42.808;23.408;2022-08-19T02:43:23;94670.41;;;16.93;87.72
24280;BME280;12395;42.808;23.408;2022-08-19T02:45:49;94668.34;;;17.00;87.53
24280;BME280;12395;42.808;23.408;2022-08-19T02:48:20;94655.63;;;16.85;87.90
24280;BME280;12395;42.808;23.408;2022-08-19T02:50:47;94643.63;;;16.66;88.59
24280;BME280;12395;42.808;23.408;2022-08-19T02:53:12;94655.03;;;16.78;88.03
24280;BME280;12395;42.808;23.408;2022-08-19T02:55:46;94652.38;;;16.83;87.25
24280;BME280;12395;42.808;23.408;2022-08-19T02:58:12;94658.53;;;16.84;86.42
24280;BME280;12395;42.808;23.408;2022-08-19T03:00:51;94666.19;;;16.97;85.88
24280;BME280;12395;42.808;23.408;2022-08-19T03:03:17;94647.09;;;16.88;85.63
24280;BME280;12395;42.808;23.408;2022-08-19T03:05:44;94657.63;;;17.00;85.93
24280;BME280;12395;42.808;23.408;2022-08-19T03:08:10;94668.91;;;17.02;85.58
24280;BME280;12395;42.808;23.408;2022-08-19T03:10:47;94652.09;;;16.80;86.05
24280;BME280;12395;42.808;23.408;2022-08-19T03:13:15;94668.03;;;16.96;85.69
24280;BME280;12395;42.808;23.408;2022-08-19T03:15:43;94667.59;;;17.05;85.85
24280;BME280;12395;42.808;23.408;2022-08-19T03:18:09;94654.72;;;17.02;85.83
24280;BME280;12395;42.808;23.408;2022-08-19T03:20:48;94659.75;;;16.98;86.60
24280;BME280;12395;42.808;23.408;2022-08-19T03:23:14;94655.81;;;16.79;87.18
24280;BME280;12395;42.808;23.408;2022-08-19T03:25:42;94656.53;;;16.69;88.10
24280;BME280;12395;42.808;23.408;2022-08-19T03:28:10;94660.03;;;16.75;87.83
24280;BME280;12395;42.808;23.408;2022-08-19T03:30:35;94667.03;;;16.76;89.09
24280;BME280;12395;42.808;23.408;2022-08-19T03:33:01;94668.22;;;16.63;89.75
24280;BME280;12395;42.808;23.408;2022-08-19T03:35:27;94627.28;;;16.41;88.87
24280;BME280;12395;42.808;23.408;2022-08-19T03:37:52;94676.66;;;16.55;89.15
24280;BME280;12395;42.808;23.408;2022-08-19T03:40:18;94672.00;;;16.67;88.88
24280;BME280;12395;42.808;23.408;2022-08-19T03:42:44;94673.88;;;16.67;89.90
24280;BME280;12395;42.808;23.408;2022-08-19T03:45:11;94680.22;;;16.61;89.76
24280;BME280;12395;42.808;23.408;2022-08-19T03:47:36;94694.97;;;16.63;90.21
24280;BME280;12395;42.808;23.408;2022-08-19T03:50:03;94704.84;;;16.63;89.64
24280;BME280;12395;42.808;23.408;2022-08-19T03:52:28;94699.22;;;16.43;89.94
24280;BME280;12395;42.808;23.408;2022-08-19T03:54:54;94703.47;;;16.60;88.89
24280;BME280;12395;42.808;23.408;2022-08-19T03:57:19;94707.00;;;16.66;89.90
24280;BME280;12395;42.808;23.408;2022-08-19T03:59:45;94707.53;;;16.63;89.00
24280;BME280;12395;42.808;23.408;2022-08-19T04:02:11;94720.16;;;16.67;88.73
24280;BME280;12395;42.808;23.408;2022-08-19T04:04:39;94712.50;;;16.76;88.13
24280;BME280;12395;42.808;23.408;2022-08-19T04:07:05;94724.97;;;16.87;88.15
24280;BME280;12395;42.808;23.408;2022-08-19T04:09:30;94713.06;;;16.78;88.36
24280;BME280;12395;42.808;23.408;2022-08-19T04:11:57;94730.53;;;16.85;88.97
24280;BME280;12395;42.808;23.408;2022-08-19T04:14:26;94726.00;;;16.86;89.29
24280;BME280;12395;42.808;23.408;2022-08-19T04:16:53;94720.66;;;16.86;89.18
24280;BME280;12395;42.808;23.408;2022-08-19T04:19:19;94721.50;;;16.91;90.70
24280;BME280;12395;42.808;23.408;2022-08-19T04:21:47;94732.56;;;17.00;90.50
24280;BME280;12395;42.808;23.408;2022-08-19T04:24:13;94690.34;;;16.80;89.54
24280;BME280;12395;42.808;23.408;2022-08-19T04:26:39;94718.75;;;17.08;88.89
24280;BME280;12395;42.808;23.408;2022-08-19T04:29:09;94728.75;;;17.18;88.80
24280;BME280;12395;42.808;23.408;2022-08-19T04:31:34;94724.41;;;17.12;89.23
24280;BME280;12395;42.808;23.408;2022-08-19T04:34:03;94721.34;;;17.25;89.26
24280;BME280;12395;42.808;23.408;2022-08-19T04:36:31;94727.88;;;17.34;89.15
24280;BME280;12395;42.808;23.408;2022-08-19T04:39:00;94728.28;;;17.26;89.61
24280;BME280;12395;42.808;23.408;2022-08-19T04:41:26;94716.63;;;17.37;88.95
24280;BME280;12395;42.808;23.408;2022-08-19T04:44:11;94715.22;;;17.56;88.64
24280;BME280;12395;42.808;23.408;2022-08-19T04:46:37;94708.06;;;17.66;89.38
24280;BME280;12395;42.808;23.408;2022-08-19T04:49:04;94714.38;;;17.82;89.28
24280;BME280;12395;42.808;23.408;2022-08-19T04:51:30;94720.28;;;17.84;88.48
24280;BME280;12395;42.808;23.408;2022-08-19T04:53:57;94713.88;;;17.85;87.35
24280;BME280;12395;42.808;23.408;2022-08-19T04:56:23;94727.41;;;18.00;85.91
24280;BME280;12395;42.808;23.408;2022-08-19T04:58:52;94727.78;;;18.19;84.61
24280;BME280;12395;42.808;23.408;2022-08-19T05:01:26;94723.56;;;18.33;84.19
24280;BME280;12395;42.808;23.408;2022-08-19T05:03:54;94730.16;;;18.52;85.98
24280;BME280;12395;42.808;23.408;2022-08-19T05:06:21;94741.50;;;18.64;84.16
24280;BME280;12395;42.808;23.408;2022-08-19T05:08:47;94751.50;;;18.79;85.31
24280;BME280;12395;42.808;23.408;2022-08-19T05:11:22;94752.63;;;18.93;83.45
24280;BME280;12395;42.808;23.408;2022-08-19T05:13:48;94747.31;;;19.03;83.77
24280;BME280;12395;42.808;23.408;2022-08-19T05:16:17;94745.19;;;19.15;84.54
24280;BME280;12395;42.808;23.408;2022-08-19T05:18:43;94749.53;;;19.31;84.16
24280;BME280;12395;42.808;23.408;2022-08-19T05:21:27;94752.81;;;19.43;82.56
24280;BME280;12395;42.808;23.408;2022-08-19T05:24:12;94737.25;;;19.50;81.31
24280;BME280;12395;42.808;23.408;2022-08-19T05:26:41;94750.69;;;19.65;83.36
24280;BME280;12395;42.808;23.408;2022-08-19T05:29:07;94752.31;;;19.76;81.76
24280;BME280;12395;42.808;23.408;2022-08-19T05:31:34;94748.56;;;19.82;81.60
24280;BME280;12395;42.808;23.408;2022-08-19T05:34:00;94753.69;;;19.99;81.09
24280;BME280;12395;42.808;23.408;2022-08-19T05:36:27;94743.47;;;20.01;80.92
24280;BME280;12395;42.808;23.408;2022-08-19T05:38:54;94748.03;;;20.16;81.33
24280;BME280;12395;42.808;23.408;2022-08-19T05:41:20;94742.13;;;20.24;79.92
24280;BME280;12395;42.808;23.408;2022-08-19T05:43:48;94741.59;;;20.27;78.04
24280;BME280;12395;42.808;23.408;2022-08-19T05:46:18;94753.13;;;20.42;77.77
24280;BME280;12395;42.808;23.408;2022-08-19T05:48:44;94751.78;;;20.45;78.02
24280;BME280;12395;42.808;23.408;2022-08-19T05:51:10;94751.78;;;20.50;76.63
24280;BME280;12395;42.808;23.408;2022-08-19T05:53:36;94746.38;;;20.60;76.48
24280;BME280;12395;42.808;23.408;2022-08-19T05:56:07;94747.97;;;20.71;76.78
24280;BME280;12395;42.808;23.408;2022-08-19T05:58:34;94745.81;;;20.78;76.40
24280;BME280;12395;42.808;23.408;2022-08-19T06:00:59;94723.47;;;20.72;75.17
24280;BME280;12395;42.808;23.408;2022-08-19T06:03:31;94740.91;;;20.90;76.26
24280;BME280;12395;42.808;23.408;2022-08-19T06:05:57;94757.31;;;21.04;74.58
24280;BME280;12395;42.808;23.408;2022-08-19T06:08:24;94753.81;;;21.08;73.73
24280;BME280;12395;42.808;23.408;2022-08-19T06:10:49;94745.72;;;21.08;73.45
24280;BME280;12395;42.808;23.408;2022-08-19T06:13:15;94750.84;;;21.10;73.34
24280;BME280;12395;42.808;23.408;2022-08-19T06:15:40;94756.97;;;21.20;72.86
24280;BME280;12395;42.808;23.408;2022-08-19T06:18:09;94756.44;;;21.18;72.29
24280;BME280;12395;42.808;23.408;2022-08-19T06:20:34;94757.22;;;21.29;73.15
24280;BME280;12395;42.808;23.408;2022-08-19T06:22:59;94766.06;;;21.39;72.38
24280;BME280;12395;42.808;23.408;2022-08-19T06:25:25;94765.47;;;21.47;72.10
24280;BME280;12395;42.808;23.408;2022-08-19T06:27:50;94757.34;;;21.58;71.71
24280;BME280;12395;42.808;23.408;2022-08-19T06:30:15;94759.97;;;21.63;71.63
24280;BME280;12395;42.808;23.408;2022-08-19T06:32:41;94745.44;;;21.64;71.31
24280;BME280;12395;42.808;23.408;2022-08-19T06:35:07;94766.34;;;21.87;71.33
24280;BME280;12395;42.808;23.408;2022-08-19T06:37:32;94765.72;;;21.95;71.38
24280;BME280;12395;42.808;23.408;2022-08-19T06:39:58;94752.22;;;22.00;71.04
24280;BME280;12395;42.808;23.408;2022-08-19T06:42:23;94759.66;;;22.13;70.71
24280;BME280;12395;42.808;23.408;2022-08-19T06:44:49;94750.38;;;22.24;69.06
24280;BME280;12395;42.808;23.408;2022-08-19T06:47:19;94760.53;;;22.37;68.51
24280;BME280;12395;42.808;23.408;2022-08-19T06:49:45;94758.00;;;22.46;67.77
24280;BME280;12395;42.808;23.408;2022-08-19T06:52:11;94770.03;;;22.63;67.67
24280;BME280;12395;42.808;23.408;2022-08-19T06:54:41;94758.59;;;22.71;67.42
24280;BME280;12395;42.808;23.408;2022-08-19T06:57:07;94753.19;;;22.71;66.31
24280;BME280;12395;42.808;23.408;2022-08-19T06:59:38;94760.91;;;22.83;66.76
24280;BME280;12395;42.808;23.408;2022-08-19T07:02:05;94765.84;;;22.99;66.80
24280;BME280;12395;42.808;23.408;2022-08-19T07:04:32;94764.34;;;23.12;66.14
24280;BME280;12395;42.808;23.408;2022-08-19T07:07:06;94778.00;;;23.26;66.24
24280;BME280;12395;42.808;23.408;2022-08-19T07:09:40;94777.88;;;23.36;64.75
24280;BME280;12395;42.808;23.408;2022-08-19T07:12:07;94772.94;;;23.43;64.40
24280;BME280;12395;42.808;23.408;2022-08-19T07:14:34;94774.34;;;23.59;64.07
24280;BME280;12395;42.808;23.408;2022-08-19T07:17:07;94765.34;;;23.63;63.94
24280;BME280;12395;42.808;23.408;2022-08-19T07:19:34;94769.53;;;23.74;61.50
24280;BME280;12395;42.808;23.408;2022-08-19T07:22:03;94775.59;;;23.85;60.15
24280;BME280;12395;42.808;23.408;2022-08-19T07:24:30;94778.22;;;23.90;58.94
24280;BME280;12395;42.808;23.408;2022-08-19T07:26:57;94769.00;;;23.91;59.25
24280;BME280;12395;42.808;23.408;2022-08-19T07:29:27;94778.59;;;24.02;59.70
24280;BME280;12395;42.808;23.408;2022-08-19T07:31:54;94774.34;;;24.15;59.52
24280;BME280;12395;42.808;23.408;2022-08-19T07:34:24;94771.38;;;24.16;58.29
24280;BME280;12395;42.808;23.408;2022-08-19T07:36:50;94776.31;;;24.28;59.16
24280;BME280;12395;42.808;23.408;2022-08-19T07:39:25;94763.63;;;24.42;60.86
24280;BME280;12395;42.808;23.408;2022-08-19T07:41:51;94755.13;;;24.48;59.20
24280;BME280;12395;42.808;23.408;2022-08-19T07:44:17;94758.34;;;24.64;56.93
24280;BME280;12395;42.808;23.408;2022-08-19T07:46:45;94764.69;;;24.73;55.88
24280;BME280;12395;42.808;23.408;2022-08-19T07:49:12;94769.19;;;24.83;56.32
24280;BME280;12395;42.808;23.408;2022-08-19T07:51:44;94771.19;;;24.91;56.08
24280;BME280;12395;42.808;23.408;2022-08-19T07:54:09;94769.69;;;24.98;54.05
24280;BME280;12395;42.808;23.408;2022-08-19T07:56:36;94769.50;;;25.08;53.85
24280;BME280;12395;42.808;23.408;2022-08-19T07:59:02;94760.53;;;25.21;56.40
24280;BME280;12395;42.808;23.408;2022-08-19T08:01:28;94733.94;;;25.10;55.53
24280;BME280;12395;42.808;23.408;2022-08-19T08:03:55;94765.78;;;25.45;55.30
24280;BME280;12395;42.808;23.408;2022-08-19T08:06:39;94772.59;;;25.56;52.80
24280;BME280;12395;42.808;23.408;2022-08-19T08:09:30;94765.97;;;25.62;52.80
24280;BME280;12395;42.808;23.408;2022-08-19T08:12:03;94771.59;;;25.66;52.61
24280;BME280;12395;42.808;23.408;2022-08-19T08:14:39;94760.31;;;25.72;54.09
24280;BME280;12395;42.808;23.408;2022-08-19T08:17:06;94761.09;;;25.86;53.45
24280;BME280;12395;42.808;23.408;2022-08-19T08:19:32;94761.84;;;26.00;52.60
24280;BME280;12395;42.808;23.408;2022-08-19T08:21:59;94760.03;;;26.10;51.24
24280;BME280;12395;42.808;23.408;2022-08-19T08:24:27;94760.41;;;26.17;48.58
24280;BME280;12395;42.808;23.408;2022-08-19T08:26:52;94759.50;;;26.21;49.73
24280;BME280;12395;42.808;23.408;2022-08-19T08:29:18;94745.41;;;26.19;49.02
24280;BME280;12395;42.808;23.408;2022-08-19T08:31:44;94751.91;;;26.32;47.95
24280;BME280;12395;42.808;23.408;2022-08-19T08:34:11;94753.53;;;26.41;48.25
24280;BME280;12395;42.808;23.408;2022-08-19T08:36:38;94738.75;;;26.47;49.07
24280;BME280;12395;42.808;23.408;2022-08-19T08:39:08;94746.00;;;26.60;48.43
24280;BME280;12395;42.808;23.408;2022-08-19T08:42:01;94750.50;;;26.65;47.74
24280;BME280;12395;42.808;23.408;2022-08-19T08:47:25;94745.63;;;26.75;49.34
24280;BME280;12395;42.808;23.408;2022-08-19T08:50:00;94743.94;;;26.88;48.48
24280;BME280;12395;42.808;23.408;2022-08-19T08:52:36;94744.28;;;26.95;47.33
24280;BME280;12395;42.808;23.408;2022-08-19T08:55:10;94722.22;;;26.97;48.26
24280;BME280;12395;42.808;23.408;2022-08-19T09:00:27;94731.91;;;27.11;48.24
24280;BME280;12395;42.808;23.408;2022-08-19T09:02:55;94728.41;;;27.19;46.67
24280;BME280;12395;42.808;23.408;2022-08-19T09:05:21;94730.31;;;27.27;47.33
24280;BME280;12395;42.808;23.408;2022-08-19T09:07:59;94728.59;;;27.31;47.32
24280;BME280;12395;42.808;23.408;2022-08-19T09:10:59;94718.91;;;27.47;47.21
24280;BME280;12395;42.808;23.408;2022-08-19T09:13:51;94720.03;;;27.64;44.42
24280;BME280;12395;42.808;23.408;2022-08-19T09:16:22;94713.63;;;27.68;44.58
24280;BME280;12395;42.808;23.408;2022-08-19T09:19:01;94721.50;;;27.87;46.07
24280;BME280;12395;42.808;23.408;2022-08-19T09:21:27;94707.41;;;27.93;44.65
24280;BME280;12395;42.808;23.408;2022-08-19T09:23:54;94711.59;;;28.08;45.77
24280;BME280;12395;42.808;23.408;2022-08-19T09:26:21;94703.59;;;28.20;44.68
24280;BME280;12395;42.808;23.408;2022-08-19T09:28:49;94705.81;;;28.35;45.80
24280;BME280;12395;42.808;23.408;2022-08-19T09:31:21;94698.72;;;28.43;43.93
24280;BME280;12395;42.808;23.408;2022-08-19T09:33:48;94694.53;;;28.54;43.91
24280;BME280;12395;42.808;23.408;2022-08-19T09:36:16;94691.47;;;28.64;42.76
24280;BME280;12395;42.808;23.408;2022-08-19T09:38:41;94688.72;;;28.72;44.57
24280;BME280;12395;42.808;23.408;2022-08-19T09:41:11;94700.38;;;28.90;40.70
24280;BME280;12395;42.808;23.408;2022-08-19T09:43:39;94695.06;;;28.93;42.48
24280;BME280;12395;42.808;23.408;2022-08-19T09:46:06;94691.66;;;29.05;42.11
24280;BME280;12395;42.808;23.408;2022-08-19T09:48:33;94678.13;;;29.17;41.81
24280;BME280;12395;42.808;23.408;2022-08-19T09:51:07;94672.44;;;29.31;40.06
24280;BME280;12395;42.808;23.408;2022-08-19T09:53:34;94660.94;;;29.25;39.14
24280;BME280;12395;42.808;23.408;2022-08-19T09:56:00;94670.25;;;29.45;40.57
24280;BME280;12395;42.808;23.408;2022-08-19T09:58:25;94663.56;;;29.63;41.51
24280;BME280;12395;42.808;23.408;2022-08-19T10:00:56;94672.78;;;29.79;40.74
24280;BME280;12395;42.808;23.408;2022-08-19T10:03:22;94661.19;;;29.82;39.40
24280;BME280;12395;42.808;23.408;2022-08-19T10:05:48;94646.88;;;29.85;39.33
24280;BME280;12395;42.808;23.408;2022-08-19T10:08:19;94656.75;;;29.98;38.00
24280;BME280;12395;42.808;23.408;2022-08-19T10:10:45;94654.72;;;30.07;36.91
24280;BME280;12395;42.808;23.408;2022-08-19T10:13:12;94655.97;;;30.10;38.44
24280;BME280;12395;42.808;23.408;2022-08-19T10:15:37;94647.31;;;30.08;37.77
24280;BME280;12395;42.808;23.408;2022-08-19T10:18:05;94662.53;;;30.29;41.17
24280;BME280;12395;42.808;23.408;2022-08-19T10:20:31;94658.28;;;30.40;36.45
24280;BME280;12395;42.808;23.408;2022-08-19T10:22:56;94650.53;;;30.42;36.09
24280;BME280;12395;42.808;23.408;2022-08-19T10:25:24;94641.75;;;30.37;37.29
24280;BME280;12395;42.808;23.408;2022-08-19T10:27:49;94643.69;;;30.36;36.22
24280;BME280;12395;42.808;23.408;2022-08-19T10:30:15;94642.19;;;30.39;37.01
24280;BME280;12395;42.808;23.408;2022-08-19T10:32:40;94647.72;;;30.51;36.06
24280;BME280;12395;42.808;23.408;2022-08-19T10:35:06;94645.22;;;30.58;37.67
24280;BME280;12395;42.808;23.408;2022-08-19T10:37:34;94636.44;;;30.53;36.35
24280;BME280;12395;42.808;23.408;2022-08-19T10:40:00;94630.50;;;30.63;35.56
24280;BME280;12395;42.808;23.408;2022-08-19T10:42:26;94632.13;;;30.76;36.24
24280;BME280;12395;42.808;23.408;2022-08-19T10:44:52;94636.81;;;30.75;35.50
24280;BME280;12395;42.808;23.408;2022-08-19T10:47:18;94629.19;;;30.81;35.24
24280;BME280;12395;42.808;23.408;2022-08-19T10:49:43;94626.44;;;30.81;35.59
24280;BME280;12395;42.808;23.408;2022-08-19T10:52:27;94627.50;;;30.88;36.07
24280;BME280;12395;42.808;23.408;2022-08-19T10:55:03;94620.09;;;30.89;34.89
24280;BME280;12395;42.808;23.408;2022-08-19T10:57:46;94626.59;;;30.96;35.24
24280;BME280;12395;42.808;23.408;2022-08-19T11:00:12;94619.19;;;31.09;37.58
24280;BME280;12395;42.808;23.408;2022-08-19T11:02:38;94625.44;;;31.21;35.68
24280;BME280;12395;42.808;23.408;2022-08-19T11:05:04;94617.13;;;31.30;36.20
24280;BME280;12395;42.808;23.408;2022-08-19T11:07:30;94610.50;;;31.43;35.29
24280;BME280;12395;42.808;23.408;2022-08-19T11:09:56;94617.88;;;31.55;35.64
24280;BME280;12395;42.808;23.408;2022-08-19T11:12:21;94624.69;;;31.73;35.81
24280;BME280;12395;42.808;23.408;2022-08-19T11:14:46;94624.19;;;31.83;34.63
24280;BME280;12395;42.808;23.408;2022-08-19T11:17:14;94618.13;;;31.89;34.14
24280;BME280;12395;42.808;23.408;2022-08-19T11:19:40;94625.66;;;31.92;33.99
24280;BME280;12395;42.808;23.408;2022-08-19T11:22:08;94622.59;;;31.94;33.92
24280;BME280;12395;42.808;23.408;2022-08-19T11:24:35;94607.63;;;31.91;33.85
24280;BME280;12395;42.808;23.408;2022-08-19T11:27:06;94605.78;;;31.95;32.89
24280;BME280;12395;42.808;23.408;2022-08-19T11:29:34;94596.88;;;31.86;32.25
24280;BME280;12395;42.808;23.408;2022-08-19T11:32:04;94615.19;;;31.94;32.67
24280;BME280;12395;42.808;23.408;2022-08-19T11:34:30;94601.78;;;31.93;32.82
24280;BME280;12395;42.808;23.408;2022-08-19T11:36:56;94597.81;;;31.90;33.63
24280;BME280;12395;42.808;23.408;2022-08-19T11:39:27;94589.91;;;31.89;33.58
24280;BME280;12395;42.808;23.408;2022-08-19T11:41:53;94584.69;;;31.96;32.49
24280;BME280;12395;42.808;23.408;2022-08-19T11:44:18;94587.09;;;32.13;33.33
24280;BME280;12395;42.808;23.408;2022-08-19T11:46:44;94590.81;;;32.21;33.21
24280;BME280;12395;42.808;23.408;2022-08-19T11:49:15;94587.59;;;32.31;34.46
24280;BME280;12395;42.808;23.408;2022-08-19T11:51:42;94589.13;;;32.44;34.80
24280;BME280;12395;42.808;23.408;2022-08-19T11:54:12;94585.00;;;32.38;32.69
24280;BME280;12395;42.808;23.408;2022-08-19T11:56:38;94553.34;;;32.25;34.51
24280;BME280;12395;42.808;23.408;2022-08-19T11:59:04;94576.41;;;32.51;33.93
24280;BME280;12395;42.808;23.408;2022-08-19T12:01:30;94582.94;;;32.62;34.27
24280;BME280;12395;42.808;23.408;2022-08-19T12:03:57;94571.81;;;32.71;32.26
24280;BME280;12395;42.808;23.408;2022-08-19T12:06:29;94572.34;;;32.61;31.69
24280;BME280;12395;42.808;23.408;2022-08-19T12:09:01;94571.63;;;32.48;32.09
24280;BME280;12395;42.808;23.408;2022-08-19T12:11:27;94552.22;;;32.41;32.87
24280;BME280;12395;42.808;23.408;2022-08-19T12:13:53;94548.41;;;32.46;31.83
24280;BME280;12395;42.808;23.408;2022-08-19T12:16:22;94569.75;;;32.68;33.21
24280;BME280;12395;42.808;23.408;2022-08-19T12:18:49;94553.91;;;32.77;33.75
24280;BME280;12395;42.808;23.408;2022-08-19T12:21:18;94550.28;;;32.89;32.55
24280;BME280;12395;42.808;23.408;2022-08-19T12:23:46;94541.53;;;32.99;33.53
24280;BME280;12395;42.808;23.408;2022-08-19T12:26:12;94539.03;;;33.09;32.70
24280;BME280;12395;42.808;23.408;2022-08-19T12:28:38;94551.97;;;33.28;31.74
24280;BME280;12395;42.808;23.408;2022-08-19T12:31:04;94540.66;;;33.29;30.99
24280;BME280;12395;42.808;23.408;2022-08-19T12:33:30;94546.72;;;33.38;32.03
24280;BME280;12395;42.808;23.408;2022-08-19T12:36:01;94544.56;;;33.47;31.30
24280;BME280;12395;42.808;23.408;2022-08-19T12:38:28;94537.75;;;33.57;31.10
24280;BME280;12395;42.808;23.408;2022-08-19T12:40:54;94534.63;;;33.59;30.88
24280;BME280;12395;42.808;23.408;2022-08-19T12:43:19;94528.72;;;33.57;30.48
24280;BME280;12395;42.808;23.408;2022-08-19T12:45:46;94539.50;;;33.50;29.79
24280;BME280;12395;42.808;23.408;2022-08-19T12:48:12;94526.72;;;33.38;29.13
24280;BME280;12395;42.808;23.408;2022-08-19T12:50:42;94535.09;;;33.45;29.95
24280;BME280;12395;42.808;23.408;2022-08-19T12:53:10;94517.28;;;33.55;30.37
24280;BME280;12395;42.808;23.408;2022-08-19T12:55:36;94515.84;;;33.61;30.13
24280;BME280;12395;42.808;23.408;2022-08-19T12:58:01;94522.78;;;33.74;29.61
24280;BME280;12395;42.808;23.408;2022-08-19T13:00:28;94520.19;;;33.81;31.84